createdAt,value
2022-12-18T00:02:01.997Z,94.50
2022-12-18T00:04:28.806Z,76.60
2022-12-18T00:06:55.299Z,84.00
2022-12-18T00:09:21.912Z,85.03
2022-12-18T00:11:51.277Z,81.87
2022-12-18T00:14:17.806Z,86.40
2022-12-18T00:16:45.827Z,87.50
2022-12-18T00:19:12.607Z,86.63
2022-12-18T00:21:38.985Z,85.30
2022-12-18T00:24:05.567Z,85.80
2022-12-18T00:26:33.862Z,90.83
2022-12-18T00:29:02.205Z,90.73
2022-12-18T00:31:28.972Z,93.03
2022-12-18T00:33:56.725Z,93.70
2022-12-18T00:36:28.644Z,91.50
2022-12-18T00:41:41.033Z,82.90
2022-12-18T00:44:08.923Z,100.70
2022-12-18T00:46:35.297Z,97.00
2022-12-18T00:49:01.871Z,98.10
2022-12-18T00:51:28.323Z,89.03
2022-12-18T00:53:54.731Z,97.30
2022-12-18T00:56:21.097Z,108.17
2022-12-18T00:58:47.442Z,96.03
2022-12-18T01:01:13.929Z,94.23
2022-12-18T01:03:40.951Z,85.87
2022-12-18T01:06:10.294Z,88.17
2022-12-18T01:08:37.079Z,83.50
2022-12-18T01:11:12.606Z,92.37
2022-12-18T01:13:40.470Z,91.70
2022-12-18T01:16:07.621Z,88.63
2022-12-18T01:18:34.016Z,85.93
2022-12-18T01:21:00.372Z,86.37
2022-12-18T01:23:27.761Z,91.63
2022-12-18T01:25:54.106Z,90.90
2022-12-18T01:28:20.549Z,87.30
2022-12-18T01:30:46.913Z,91.60
2022-12-18T01:33:13.320Z,80.27
2022-12-18T01:35:43.451Z,87.47
2022-12-18T01:38:10.207Z,86.60
2022-12-18T01:40:36.915Z,74.63
2022-12-18T01:43:03.345Z,77.03
2022-12-18T01:45:31.382Z,86.90
2022-12-18T01:48:03.732Z,81.27
2022-12-18T01:50:48.340Z,78.63
2022-12-18T01:53:20.854Z,76.40
2022-12-18T01:55:56.360Z,86.07
2022-12-18T01:58:41.543Z,83.63
2022-12-18T02:01:08.344Z,86.43
2022-12-18T02:03:34.912Z,82.40
2022-12-18T02:06:01.278Z,87.63
2022-12-18T02:08:35.474Z,82.93
2022-12-18T02:11:19.997Z,85.00
2022-12-18T02:14:09.265Z,88.10
2022-12-18T02:16:40.580Z,80.13
2022-12-18T02:19:27.185Z,97.75
2022-12-18T02:22:32.542Z,93.83
2022-12-18T02:25:21.419Z,85.47
2022-12-18T02:27:48.268Z,84.37
2022-12-18T02:30:15.460Z,92.03
2022-12-18T02:32:45.914Z,81.93
2022-12-18T02:35:16.537Z,112.87
2022-12-18T02:37:44.398Z,161.30
2022-12-18T02:40:12.256Z,138.13
2022-12-18T02:42:38.909Z,115.17
2022-12-18T02:45:05.742Z,105.50
2022-12-18T02:47:34.648Z,113.27
2022-12-18T02:50:20.980Z,110.50
2022-12-18T02:53:17.772Z,179.30
2022-12-18T02:56:16.288Z,113.70
2022-12-18T02:59:16.991Z,99.47
2022-12-18T03:01:43.391Z,162.03
2022-12-18T03:04:22.278Z,104.43
2022-12-18T03:06:51.027Z,98.30
2022-12-18T03:09:21.850Z,89.13
2022-12-18T03:12:13.991Z,83.30
2022-12-18T03:14:41.221Z,89.05
2022-12-18T03:17:13.408Z,87.93
2022-12-18T03:19:40.212Z,88.70
2022-12-18T03:22:08.223Z,79.30
2022-12-18T03:24:38.285Z,83.50
2022-12-18T03:27:07.239Z,83.43
2022-12-18T03:29:39.949Z,104.60
2022-12-18T03:32:11.930Z,92.80
2022-12-18T03:37:06.713Z,84.13
2022-12-18T03:39:34.927Z,86.10
2022-12-18T03:42:24.975Z,82.43
2022-12-18T03:44:59.153Z,78.57
2022-12-18T03:47:33.448Z,79.77
2022-12-18T03:50:13.655Z,79.80
2022-12-18T03:52:56.879Z,102.27
2022-12-18T03:55:24.080Z,95.17
2022-12-18T03:57:51.623Z,78.87
2022-12-18T04:00:19.189Z,76.07
2022-12-18T04:03:05.400Z,85.23
2022-12-18T04:05:33.424Z,109.03
2022-12-18T04:08:00.011Z,160.93
2022-12-18T04:10:26.373Z,163.77
2022-12-18T04:12:56.747Z,149.87
2022-12-18T04:15:23.114Z,83.53
2022-12-18T04:17:50.536Z,76.80
2022-12-18T04:20:17.803Z,80.60
2022-12-18T04:22:44.183Z,73.50
2022-12-18T04:25:10.558Z,82.73
2022-12-18T04:27:36.940Z,91.80
2022-12-18T04:30:03.754Z,93.50
2022-12-18T04:32:30.105Z,82.70
2022-12-18T04:34:56.467Z,106.97
2022-12-18T04:37:22.899Z,174.77
2022-12-18T04:39:49.416Z,121.63
2022-12-18T04:42:15.774Z,112.43
2022-12-18T04:44:42.168Z,112.73
2022-12-18T04:47:08.585Z,109.37
2022-12-18T04:49:34.971Z,103.30
2022-12-18T04:52:01.414Z,92.37
2022-12-18T04:54:27.795Z,85.47
2022-12-18T04:56:54.149Z,70.03
2022-12-18T04:59:21.605Z,64.87
2022-12-18T05:01:48.060Z,102.73
2022-12-18T05:04:14.614Z,91.47
2022-12-18T05:06:41.005Z,77.43
2022-12-18T05:09:07.391Z,77.90
2022-12-18T05:11:33.766Z,92.07
2022-12-18T05:14:00.135Z,95.37
2022-12-18T05:16:26.527Z,119.30
2022-12-18T05:18:52.981Z,143.87
2022-12-18T05:21:19.342Z,112.07
2022-12-18T05:23:45.730Z,112.87
2022-12-18T05:26:16.363Z,132.73
2022-12-18T05:28:42.898Z,151.00
2022-12-18T05:31:09.381Z,142.50
2022-12-18T05:33:36.203Z,137.53
2022-12-18T05:36:04.954Z,99.43
2022-12-18T05:38:32.769Z,76.17
2022-12-18T05:40:59.263Z,114.20
2022-12-18T05:43:26.399Z,115.80
2022-12-18T05:45:53.784Z,101.27
2022-12-18T05:48:20.598Z,94.87
2022-12-18T05:50:48.500Z,95.33
2022-12-18T05:53:16.826Z,86.27
2022-12-18T05:55:43.888Z,80.17
2022-12-18T05:58:11.421Z,68.30
2022-12-18T06:00:42.677Z,71.73
2022-12-18T06:03:10.197Z,67.93
2022-12-18T06:05:43.344Z,63.10
2022-12-18T06:08:10.400Z,61.83
2022-12-18T06:10:36.917Z,72.93
2022-12-18T06:13:03.889Z,61.33
2022-12-18T06:15:30.428Z,66.57
2022-12-18T06:17:56.812Z,64.27
2022-12-18T06:20:23.450Z,62.57
2022-12-18T06:22:49.858Z,53.70
2022-12-18T06:25:16.319Z,55.83
2022-12-18T06:27:42.947Z,63.37
2022-12-18T06:30:10.380Z,72.90
2022-12-18T06:32:36.795Z,61.13
2022-12-18T06:35:03.308Z,69.87
2022-12-18T06:37:32.401Z,65.03
2022-12-18T06:39:58.845Z,68.00
2022-12-18T06:42:25.507Z,67.70
2022-12-18T06:44:51.902Z,70.20
2022-12-18T06:47:19.048Z,71.23
2022-12-18T06:49:45.414Z,71.10
2022-12-18T06:52:11.812Z,70.00
2022-12-18T06:54:38.171Z,83.27
2022-12-18T06:57:04.729Z,77.33
2022-12-18T06:59:31.135Z,70.10
2022-12-18T07:01:57.645Z,65.87
2022-12-18T07:04:29.792Z,67.30
2022-12-18T07:06:56.247Z,60.87
2022-12-18T07:09:22.631Z,64.47
2022-12-18T07:11:49.036Z,69.33
2022-12-18T07:14:15.406Z,72.93
2022-12-18T07:16:42.048Z,75.40
2022-12-18T07:19:08.548Z,76.23
2022-12-18T07:21:34.934Z,64.83
2022-12-18T07:24:01.409Z,95.03
2022-12-18T07:26:27.864Z,72.63
2022-12-18T07:28:56.587Z,61.53
2022-12-18T07:31:23.334Z,66.07
2022-12-18T07:33:50.694Z,63.37
2022-12-18T07:36:17.243Z,72.13
2022-12-18T07:38:43.860Z,69.47
2022-12-18T07:41:14.432Z,65.93
2022-12-18T07:43:42.329Z,68.53
2022-12-18T07:46:10.144Z,68.93
2022-12-18T07:48:36.697Z,71.00
2022-12-18T07:51:05.539Z,64.93
2022-12-18T07:53:32.953Z,70.97
2022-12-18T07:56:26.010Z,64.20
2022-12-18T07:58:47.787Z,66.40
2022-12-18T08:01:15.373Z,65.23
2022-12-18T08:03:42.231Z,69.97
2022-12-18T08:06:10.301Z,52.87
2022-12-18T08:08:36.807Z,57.57
2022-12-18T08:11:03.258Z,62.63
2022-12-18T08:13:29.740Z,52.70
2022-12-18T08:16:03.909Z,56.70
2022-12-18T08:18:30.304Z,56.00
2022-12-18T08:20:56.834Z,59.07
2022-12-18T08:23:24.187Z,57.50
2022-12-18T08:25:52.883Z,60.77
2022-12-18T08:28:19.297Z,55.50
2022-12-18T08:30:45.692Z,54.87
2022-12-18T08:33:12.082Z,58.63
2022-12-18T08:35:44.086Z,55.27
2022-12-18T08:38:12.085Z,57.00
2022-12-18T08:40:38.495Z,53.23
2022-12-18T08:43:23.391Z,51.33
2022-12-18T08:45:49.870Z,47.73
2022-12-18T08:48:21.855Z,51.80
2022-12-18T08:50:58.853Z,53.57
2022-12-18T08:53:25.447Z,52.13
2022-12-18T08:55:51.850Z,51.33
2022-12-18T08:58:18.732Z,48.40
2022-12-18T09:00:45.163Z,47.83
2022-12-18T09:03:13.595Z,52.47
2022-12-18T09:05:40.154Z,55.07
2022-12-18T09:08:06.745Z,54.43
2022-12-18T09:10:33.334Z,51.17
2022-12-18T09:13:00.017Z,51.90
2022-12-18T09:15:26.447Z,57.20
2022-12-18T09:17:53.793Z,59.20
2022-12-18T09:20:20.193Z,65.30
2022-12-18T09:22:46.567Z,51.80
2022-12-18T09:25:12.924Z,48.87
2022-12-18T09:27:40.173Z,51.00
2022-12-18T09:30:07.347Z,54.93
2022-12-18T09:32:33.735Z,49.67
2022-12-18T09:35:00.532Z,47.70
2022-12-18T09:37:26.985Z,49.40
2022-12-18T09:39:53.456Z,42.90
2022-12-18T09:42:23.422Z,55.60
2022-12-18T09:44:54.466Z,52.47
2022-12-18T09:47:29.782Z,54.00
2022-12-18T09:50:00.146Z,54.47
2022-12-18T09:52:31.599Z,49.27
2022-12-18T09:55:02.409Z,55.83
2022-12-18T09:57:30.946Z,56.23
2022-12-18T10:00:08.065Z,65.27
2022-12-18T10:02:34.611Z,63.03
2022-12-18T10:05:17.864Z,61.67
2022-12-18T10:08:00.572Z,57.00
2022-12-18T10:10:48.439Z,49.63
2022-12-18T10:13:36.791Z,44.33
2022-12-18T10:16:44.273Z,44.93
2022-12-18T10:19:23.046Z,59.53
2022-12-18T10:21:55.968Z,45.30
2022-12-18T10:24:36.816Z,40.27
2022-12-18T10:27:16.309Z,38.67
2022-12-18T10:29:45.030Z,36.20
2022-12-18T10:32:17.267Z,46.60
2022-12-18T10:37:18.452Z,39.03
2022-12-18T10:39:45.270Z,44.88
2022-12-18T10:42:17.999Z,40.65
2022-12-18T10:44:44.944Z,52.40
2022-12-18T10:47:16.832Z,99.43
2022-12-18T10:49:51.790Z,116.47
2022-12-18T10:52:26.275Z,60.38
2022-12-18T10:55:02.733Z,47.92
2022-12-18T10:57:38.008Z,38.10
2022-12-18T11:00:25.133Z,34.35
2022-12-18T11:02:52.240Z,33.80
2022-12-18T11:05:29.855Z,32.03
2022-12-18T11:07:57.126Z,32.45
2022-12-18T11:10:31.224Z,36.22
2022-12-18T11:13:11.054Z,52.17
2022-12-18T11:15:37.913Z,36.15
2022-12-18T11:18:04.497Z,30.48
2022-12-18T11:20:35.592Z,29.92
2022-12-18T11:23:11.484Z,29.83
2022-12-18T11:25:37.884Z,27.42
2022-12-18T11:28:24.405Z,29.42
2022-12-18T11:30:55.837Z,27.40
2022-12-18T11:33:22.860Z,26.73
2022-12-18T11:35:53.216Z,27.17
2022-12-18T11:38:26.202Z,24.42
2022-12-18T11:41:05.577Z,25.27
2022-12-18T11:43:48.546Z,23.60
2022-12-18T11:46:27.614Z,23.42
2022-12-18T11:49:04.886Z,25.23
2022-12-18T11:51:36.422Z,22.50
2022-12-18T11:54:12.648Z,28.92
2022-12-18T11:56:45.768Z,24.08
2022-12-18T11:59:34.852Z,27.05
2022-12-18T12:02:20.945Z,28.45
2022-12-18T12:05:24.597Z,27.88
2022-12-18T12:08:25.059Z,22.23
2022-12-18T12:11:07.554Z,27.92
2022-12-18T12:13:41.437Z,33.55
2022-12-18T12:16:47.174Z,29.88
2022-12-18T12:19:41.272Z,31.30
2022-12-18T12:22:33.972Z,26.17
2022-12-18T12:25:12.870Z,21.33
2022-12-18T12:27:48.258Z,26.75
2022-12-18T12:30:21.528Z,31.45
2022-12-18T12:32:55.195Z,28.63
2022-12-18T12:35:37.418Z,25.92
2022-12-18T12:38:21.041Z,23.85
2022-12-18T12:41:03.642Z,21.65
2022-12-18T12:43:44.628Z,23.05
2022-12-18T12:46:18.916Z,24.38
2022-12-18T12:48:57.858Z,23.80
2022-12-18T12:51:30.570Z,31.20
2022-12-18T12:53:58.642Z,28.33
2022-12-18T12:56:31.601Z,32.88
2022-12-18T12:59:32.958Z,28.77
2022-12-18T13:02:11.865Z,30.08
2022-12-18T13:04:59.093Z,33.40
2022-12-18T13:07:30.607Z,41.55
2022-12-18T13:10:20.521Z,36.22
2022-12-18T13:12:56.812Z,35.05
2022-12-18T13:15:36.746Z,27.40
2022-12-18T13:18:09.553Z,21.63
2022-12-18T13:20:39.432Z,21.88
2022-12-18T13:23:24.668Z,23.55
2022-12-18T13:25:52.006Z,23.77
2022-12-18T13:28:22.942Z,23.25
2022-12-18T13:30:50.883Z,24.73
2022-12-18T13:33:26.652Z,19.15
2022-12-18T13:36:01.774Z,22.88
2022-12-18T13:38:41.497Z,24.15
2022-12-18T13:41:08.372Z,21.83
2022-12-18T13:43:41.079Z,30.35
2022-12-18T13:46:43.858Z,39.28
2022-12-18T13:49:13.143Z,56.33
2022-12-18T13:51:48.847Z,52.00
2022-12-18T13:54:22.859Z,39.70
2022-12-18T13:56:49.834Z,40.33
2022-12-18T13:59:24.670Z,49.85
2022-12-18T14:01:55.550Z,76.18
2022-12-18T14:04:24.297Z,60.92
2022-12-18T14:06:53.743Z,44.67
2022-12-18T14:09:30.240Z,97.45
2022-12-18T14:12:17.536Z,73.18
2022-12-18T14:14:46.580Z,51.10
2022-12-18T14:17:15.500Z,42.53
2022-12-18T14:19:45.090Z,37.92
2022-12-18T14:22:20.656Z,34.80
2022-12-18T14:24:48.273Z,32.40
2022-12-18T14:27:25.915Z,35.97
2022-12-18T14:29:52.727Z,29.60
2022-12-18T14:32:20.927Z,31.67
2022-12-18T14:34:54.906Z,27.70
2022-12-18T14:37:23.782Z,32.75
2022-12-18T14:39:54.203Z,30.67
2022-12-18T14:42:20.592Z,29.80
2022-12-18T14:45:16.940Z,32.30
2022-12-18T14:47:33.391Z,32.75
2022-12-18T14:50:00.675Z,33.10
2022-12-18T14:52:28.981Z,42.08
2022-12-18T14:54:55.426Z,50.17
2022-12-18T14:57:24.344Z,50.33
2022-12-18T14:59:51.446Z,54.08
2022-12-18T15:02:26.463Z,52.05
2022-12-18T15:05:13.676Z,43.25
2022-12-18T15:07:52.844Z,33.83
2022-12-18T15:10:34.839Z,31.23
2022-12-18T15:13:02.291Z,31.38
2022-12-18T15:15:37.643Z,36.90
2022-12-18T15:18:08.498Z,39.05
2022-12-18T15:20:43.468Z,37.20
2022-12-18T15:23:19.418Z,37.72
2022-12-18T15:25:46.623Z,35.97
2022-12-18T15:28:49.502Z,34.97
2022-12-18T15:31:16.941Z,35.25
2022-12-18T15:34:03.996Z,32.75
2022-12-18T15:36:31.233Z,29.48
2022-12-18T15:39:04.896Z,27.67
2022-12-18T15:41:36.828Z,28.75
2022-12-18T15:44:04.554Z,30.63
2022-12-18T15:46:31.803Z,31.95
2022-12-18T15:49:02.376Z,30.02
2022-12-18T15:51:33.952Z,28.77
2022-12-18T15:54:01.860Z,30.02
2022-12-18T15:56:46.826Z,29.85
2022-12-18T15:59:15.589Z,30.13
2022-12-18T16:01:44.239Z,27.17
2022-12-18T16:04:15.115Z,30.13
2022-12-18T16:07:12.660Z,28.60
2022-12-18T16:09:28.352Z,25.10
2022-12-18T16:11:54.739Z,29.40
2022-12-18T16:14:22.382Z,30.05
2022-12-18T16:17:02.805Z,34.47
2022-12-18T16:19:30.141Z,31.40
2022-12-18T16:21:57.882Z,32.78
2022-12-18T16:24:26.821Z,29.42
2022-12-18T16:26:53.930Z,33.92
2022-12-18T16:29:25.552Z,33.50
2022-12-18T16:31:52.449Z,32.85
2022-12-18T16:34:29.039Z,35.38
2022-12-18T16:37:03.144Z,27.73
2022-12-18T16:39:31.769Z,36.20
2022-12-18T16:41:58.642Z,33.15
2022-12-18T16:44:25.982Z,33.95
2022-12-18T16:46:52.509Z,36.78
2022-12-18T16:49:19.883Z,34.80
2022-12-18T16:51:47.016Z,34.97
2022-12-18T16:54:18.854Z,33.13
2022-12-18T16:56:47.747Z,32.60
2022-12-18T16:59:14.122Z,34.13
2022-12-18T17:01:41.891Z,33.70
2022-12-18T17:04:08.858Z,33.28
2022-12-18T17:06:39.696Z,36.65
2022-12-18T17:09:09.197Z,35.63
2022-12-18T17:11:36.414Z,32.97
2022-12-18T17:14:11.158Z,27.23
2022-12-18T17:16:37.562Z,27.90
2022-12-18T17:19:05.880Z,27.25
2022-12-18T17:21:32.261Z,29.77
2022-12-18T17:24:02.072Z,29.92
2022-12-18T17:26:29.296Z,29.77
2022-12-18T17:28:59.268Z,32.00
2022-12-18T17:31:27.681Z,28.67
2022-12-18T17:33:54.496Z,30.10
2022-12-18T17:36:21.403Z,32.25
2022-12-18T17:38:53.997Z,30.02
2022-12-18T17:41:20.906Z,29.92
2022-12-18T17:43:54.583Z,32.53
2022-12-18T17:46:21.135Z,42.33
2022-12-18T17:48:47.885Z,40.88
2022-12-18T17:51:17.469Z,33.03
2022-12-18T17:53:44.585Z,33.97
2022-12-18T17:56:13.833Z,35.33
2022-12-18T17:58:40.770Z,34.75
2022-12-18T18:01:07.402Z,37.95
2022-12-18T18:03:34.663Z,37.45
2022-12-18T18:06:02.424Z,38.00
2022-12-18T18:08:29.349Z,39.28
2022-12-18T18:11:16.046Z,37.25
2022-12-18T18:14:00.802Z,36.60
2022-12-18T18:16:49.918Z,34.33
2022-12-18T18:19:19.349Z,31.05
2022-12-18T18:21:47.280Z,38.83
2022-12-18T18:24:17.027Z,35.90
2022-12-18T18:26:43.973Z,35.20
2022-12-18T18:29:15.651Z,36.60
2022-12-18T18:31:42.205Z,38.53
2022-12-18T18:34:14.512Z,34.90
2022-12-18T18:39:07.193Z,38.72
2022-12-18T18:41:35.529Z,39.97
2022-12-18T18:44:01.914Z,33.38
2022-12-18T18:46:28.291Z,35.38
2022-12-18T18:48:55.199Z,34.05
2022-12-18T18:51:22.461Z,43.08
2022-12-18T18:53:50.839Z,37.50
2022-12-18T18:56:56.267Z,41.13
2022-12-18T18:59:06.065Z,38.55
2022-12-18T19:01:33.008Z,39.47
2022-12-18T19:04:00.701Z,41.88
2022-12-18T19:06:28.402Z,37.90
2022-12-18T19:08:56.402Z,40.67
2022-12-18T19:11:42.867Z,39.25
2022-12-18T19:14:11.340Z,36.53
2022-12-18T19:16:38.214Z,35.70
2022-12-18T19:19:05.113Z,42.15
2022-12-18T19:21:34.237Z,38.05
2022-12-18T19:24:02.347Z,43.80
2022-12-18T19:26:29.078Z,38.90
2022-12-18T19:29:01.860Z,41.50
2022-12-18T19:31:34.777Z,39.22
2022-12-18T19:34:02.404Z,36.75
2022-12-18T19:36:29.899Z,38.60
2022-12-18T19:38:58.761Z,40.72
2022-12-18T19:41:25.681Z,38.38
2022-12-18T19:43:55.348Z,39.80
2022-12-18T19:46:22.913Z,38.60
2022-12-18T19:48:50.008Z,38.40
2022-12-18T19:51:24.615Z,39.05
2022-12-18T19:53:57.843Z,37.25
2022-12-18T19:56:26.804Z,42.92
2022-12-18T19:58:53.814Z,38.63
2022-12-18T20:01:22.717Z,42.47
2022-12-18T20:03:52.751Z,38.67
2022-12-18T20:06:45.956Z,43.10
2022-12-18T20:09:12.436Z,39.30
2022-12-18T20:11:41.983Z,42.55
2022-12-18T20:14:10.247Z,41.50
2022-12-18T20:16:36.787Z,44.10
2022-12-18T20:19:04.081Z,37.40
2022-12-18T20:21:30.665Z,41.20
2022-12-18T20:23:57.179Z,43.30
2022-12-18T20:26:24.747Z,39.85
2022-12-18T20:28:51.700Z,37.95
2022-12-18T20:31:18.098Z,37.58
2022-12-18T20:33:47.599Z,42.55
2022-12-18T20:36:21.130Z,40.20
2022-12-18T20:38:49.442Z,40.55
2022-12-18T20:41:18.610Z,41.20
2022-12-18T20:43:45.695Z,45.67
2022-12-18T20:46:13.547Z,43.58
2022-12-18T20:48:40.271Z,44.25
2022-12-18T20:51:09.447Z,39.67
2022-12-18T20:53:36.144Z,43.20
2022-12-18T20:56:08.680Z,43.78
2022-12-18T20:58:35.643Z,42.38
2022-12-18T21:01:04.612Z,40.47
2022-12-18T21:03:31.106Z,39.92
2022-12-18T21:05:57.538Z,36.80
2022-12-18T21:08:23.920Z,42.85
2022-12-18T21:10:50.371Z,41.35
2022-12-18T21:13:17.306Z,38.65
2022-12-18T21:15:45.022Z,41.50
2022-12-18T21:18:11.482Z,40.78
2022-12-18T21:20:38.060Z,41.03
2022-12-18T21:23:16.001Z,45.80
2022-12-18T21:25:43.642Z,43.17
2022-12-18T21:28:10.009Z,39.70
2022-12-18T21:30:36.573Z,43.88
2022-12-18T21:33:03.088Z,40.45
2022-12-18T21:35:29.475Z,41.25
2022-12-18T21:37:58.719Z,42.65
2022-12-18T21:40:25.147Z,43.53
2022-12-18T21:43:10.234Z,38.38
2022-12-18T21:45:39.663Z,48.65
2022-12-18T21:48:06.151Z,43.13
2022-12-18T21:50:32.514Z,47.13
2022-12-18T21:52:58.887Z,41.65
2022-12-18T21:55:25.612Z,44.08
2022-12-18T21:57:53.690Z,44.20
2022-12-18T22:00:20.175Z,41.55
2022-12-18T22:02:47.663Z,47.15
2022-12-18T22:05:14.278Z,43.05
2022-12-18T22:07:40.712Z,39.10
2022-12-18T22:10:07.796Z,42.72
2022-12-18T22:12:39.790Z,45.60
2022-12-18T22:15:11.823Z,41.95
2022-12-18T22:17:40.289Z,50.92
2022-12-18T22:20:09.168Z,47.10
2022-12-18T22:22:35.632Z,47.25
2022-12-18T22:25:02.272Z,43.88
2022-12-18T22:27:28.627Z,42.40
2022-12-18T22:30:03.985Z,43.70
2022-12-18T22:32:35.063Z,44.40
2022-12-18T22:35:08.392Z,42.88
2022-12-18T22:37:39.212Z,41.45
2022-12-18T22:40:07.215Z,42.03
2022-12-18T22:42:33.943Z,43.38
2022-12-18T22:45:00.518Z,43.10
2022-12-18T22:47:30.053Z,44.70
2022-12-18T22:49:56.709Z,46.17
2022-12-18T22:52:24.906Z,43.40
2022-12-18T22:54:53.675Z,45.17
2022-12-18T22:57:21.499Z,44.20
2022-12-18T22:59:47.939Z,44.15
2022-12-18T23:02:14.452Z,43.45
2022-12-18T23:04:41.029Z,45.92
2022-12-18T23:07:07.389Z,38.50
2022-12-18T23:09:33.885Z,41.58
2022-12-18T23:12:00.860Z,45.70
2022-12-18T23:14:28.089Z,42.63
2022-12-18T23:16:54.486Z,46.67
2022-12-18T23:19:23.607Z,48.53
2022-12-18T23:21:50.603Z,50.40
2022-12-18T23:24:17.003Z,42.28
2022-12-18T23:26:43.403Z,46.05
2022-12-18T23:29:09.830Z,46.80
2022-12-18T23:31:38.469Z,44.05
2022-12-18T23:34:06.028Z,46.38
2022-12-18T23:36:33.976Z,45.65
2022-12-18T23:39:11.418Z,48.28
2022-12-18T23:41:38.811Z,52.40
2022-12-18T23:44:05.179Z,44.08
2022-12-18T23:46:33.769Z,45.67
2022-12-18T23:49:02.439Z,50.30
2022-12-18T23:51:29.610Z,46.80
2022-12-18T23:53:58.083Z,48.75
2022-12-18T23:56:25.661Z,47.97
2022-12-18T23:58:52.883Z,48.70
